»·PEaware :: TPX102 KSNA-KBFL

TPX102 :: KSNA-KBFL

FLIGHT INFORMATION

Flight Status: Arrived
Operator: ATP Experience
More flights by this operator :: More flights under this callsign
Pilot: Dave P. (45)
Aircraft: BOEING 737-600
(B736)
More flights by this aircraft type
Origin: KSNA John Wayne-Orange Co
United States
Destination: KBFL Meadows
United States
More flights between these airports :: More routes between these airports
Route: +CHANL3 GMN FASTO2
File this flight plan on PilotEdge
Remarks: PBN / A1B1C1D1S1S2 DOF / 180712 REG / N736PM OPR / TPX PER / C RMK / TCAS SIMBRIEF
Altitude:
(Current/Filed)
27,000ft
Speed:
(Current/Filed)
460kts
Departed: 11-Jul-18 05:19 PM
Arrived: 11-Jul-18 05:51 PM
Distance/Time
Traveled:
120nm/0:32
Distance/Time
To Go:
Arrived

Flight Plot

Page will automatically refresh every two minutes.

Flight plan parsing failed; only flown route is shown


Map Options




Map Legend


Flown Route
Filed Route
Departure Airport
Arrival Airport
Navaid (VOR, NDB)
Fix

Horizontal Profiles

Position Reports

Time Latitude Longitude Heading Altitude Ground
Speed
11-Jul-18 17:06 33.676069 -117.864390 118 64ft 0kts
11-Jul-18 17:07 33.676069 -117.864390 118 64ft 0kts
11-Jul-18 17:08 33.676069 -117.864390 118 64ft 0kts
11-Jul-18 17:09 33.676069 -117.864390 118 64ft 0kts
11-Jul-18 17:10 33.676069 -117.864390 118 64ft 0kts
11-Jul-18 17:11 33.676069 -117.864390 118 64ft 0kts
11-Jul-18 17:12 33.676069 -117.864390 118 64ft 0kts
11-Jul-18 17:13 33.676069 -117.864390 118 64ft 0kts
11-Jul-18 17:14 33.676033 -117.865101 49 63ft 2kts
11-Jul-18 17:15 33.676023 -117.865115 49 63ft 0kts
11-Jul-18 17:16 33.676023 -117.865114 49 63ft 0kts
11-Jul-18 17:17 33.678966 -117.863410 27 63ft 13kts
11-Jul-18 17:18 33.680645 -117.863129 297 63ft 0kts
11-Jul-18 17:19 33.681105 -117.864171 297 63ft 9kts
11-Jul-18 17:20 33.676881 -117.868106 208 64ft 91kts
11-Jul-18 17:21 33.642117 -117.885729 190 1961ft 147kts
11-Jul-18 17:22 33.590135 -117.899970 208 3392ft 238kts
11-Jul-18 17:23 33.528619 -117.948592 213 6403ft 279kts
11-Jul-18 17:24 33.462542 -118.002954 213 9677ft 297kts
11-Jul-18 17:25 33.388714 -118.063668 213 11681ft 360kts
11-Jul-18 17:26 33.345043 -118.168296 278 14518ft 381kts
11-Jul-18 17:27 33.364252 -118.295560 276 17464ft 398kts
11-Jul-18 17:28 33.409051 -118.413041 326 20030ft 409kts
11-Jul-18 17:29 33.518312 -118.455561 346 22291ft 422kts
11-Jul-18 17:30 33.633965 -118.491610 346 24243ft 436kts
11-Jul-18 17:31 33.752251 -118.528594 346 25930ft 449kts
11-Jul-18 17:32 33.874636 -118.566804 346 26916ft 458kts
11-Jul-18 17:33 33.997594 -118.605351 346 26920ft 456kts
11-Jul-18 17:34 34.120074 -118.643895 346 26911ft 455kts
11-Jul-18 17:35 34.242184 -118.682443 346 26188ft 444kts
11-Jul-18 17:36 34.359727 -118.719664 346 23423ft 428kts
11-Jul-18 17:37 34.472663 -118.755532 346 20767ft 411kts
11-Jul-18 17:38 34.580903 -118.789926 346 18214ft 394kts
11-Jul-18 17:39 34.685070 -118.823221 346 15653ft 381kts
11-Jul-18 17:40 34.785904 -118.855340 348 13137ft 367kts
11-Jul-18 17:41 34.884367 -118.861731 1 11352ft 333kts
11-Jul-18 17:42 34.969174 -118.861389 0 10584ft 286kts
11-Jul-18 17:43 35.048712 -118.860832 0 8733ft 286kts
11-Jul-18 17:44 35.122589 -118.862713 349 7554ft 246kts
11-Jul-18 17:45 35.187143 -118.886934 342 5799ft 239kts
11-Jul-18 17:46 35.245603 -118.903532 352 5078ft 195kts
11-Jul-18 17:47 35.297690 -118.911677 352 3712ft 189kts
11-Jul-18 17:48 35.340333 -118.942978 313 2742ft 182kts
11-Jul-18 17:49 35.376273 -118.986674 314 2024ft 167kts
11-Jul-18 17:50 35.405566 -119.022022 316 1229ft 132kts
11-Jul-18 17:51 35.430975 -119.052698 316 567ft 126kts
11-Jul-18 17:52 35.442553 -119.065197 45 515ft 0kts
11-Jul-18 17:53 35.442630 -119.065103 45 515ft 5kts
11-Jul-18 17:54 35.440712 -119.061974 135 515ft 21kts
11-Jul-18 17:55 35.436836 -119.057333 135 515ft 19kts
11-Jul-18 17:56 35.433268 -119.053056 135 515ft 22kts
11-Jul-18 17:57 35.431736 -119.049490 49 514ft 7kts
11-Jul-18 17:58 35.431507 -119.047312 44 515ft 0kts
11-Jul-18 17:59 35.431507 -119.047312 44 515ft 0kts

Navigation Log

Ident Type
Flight plan parsing failed, navigation log unavailable